Moleson — HBLE — position and weather

sailwx.info

Track history (hours):
 
Tides and Currents Weather Stations Pressure Air Temp Water Temp Dewpoint Dewpoint Depression Visibility Wind Speed Wind Dir Waves Ship Positions

Moleson

Last reported at 2014-Dec-05 01:27 UTC. Time now 2014-Dec-19 08:39 UTC.
Position N 36°27' E 014°31'.
Warning: this ship's position is 14 days out of date.

Length 181 m; draft 9.6 m.

Type: Ship. MMSI: 269039000.

Date/timePositionNaut miles runAvg speedWind from/ knotsBaromVisibWave heightAir tempDewpointWater temp
2014-Dec-05 01:27N 36°27' E 014°31'1112.5
2014-Dec-05 00:33N 36°31' E 014°18'1312.6
2014-Dec-04 23:33N 36°34' E 014°03'1312.9
2014-Dec-04 22:33N 36°38' E 013°47'  
2014-Dec-01 18:33N 36°01' W 005°08'1212.3
2014-Dec-01 17:33N 36°06' W 005°22'1 1.0
2014-Dec-01 16:31N 36°07' W 005°21'0 0.0
2014-Dec-01 15:31N 36°07' W 005°21'0 0.1
2014-Dec-01 14:31N 36°07' W 005°21'0 0.0
2014-Dec-01 13:25N 36°07' W 005°21'0 0.0
2014-Dec-01 12:25N 36°07' W 005°21'0 0.1
2014-Dec-01 11:31N 36°07' W 005°21'0 0.1
2014-Dec-01 10:31N 36°07' W 005°21'0 0.1
2014-Dec-01 09:19N 36°07' W 005°21'0 0.0
2014-Dec-01 08:31N 36°07' W 005°21'0 0.0
2014-Dec-01 07:07N 36°07' W 005°21'0 0.0
2014-Dec-01 06:31N 36°07' W 005°21'0 0.1
2014-Dec-01 05:33N 36°07' W 005°21'0 0.1
2014-Dec-01 04:33N 36°07' W 005°21'1 1.0
2014-Dec-01 03:33N 36°06' W 005°22'8 8.2
2014-Dec-01 02:33N 35°58' W 005°25'26310.1
2014-Nov-30 00:33N 38°22' W 010°01'1211.6
2014-Nov-29 23:33N 38°33' W 010°05'1111.3
2014-Nov-29 22:33N 38°44' W 010°06'1211.3
2014-Nov-29 21:31N 38°56' W 010°06'1311.5
2014-Nov-29 20:25N 39°09' W 010°06'  
2014-Nov-26 21:25N 50°01' W 002°60'11612.9
2014-Nov-26 12:23N 50°32' W 000°04'910.3
2014-Nov-26 11:33N 50°33' E 000°09'10 9.8
2014-Nov-26 10:33N 50°35' E 000°24'1110.6
2014-Nov-26 09:33N 50°39' E 000°39'1312.5
2014-Nov-26 08:33N 50°46' E 000°56'1313.5
2014-Nov-26 07:34N 50°55' E 001°12'1313.0
2014-Nov-26 06:33N 51°04' E 001°27'1111.5
2014-Nov-26 05:33N 51°11' E 001°42'1010.2
2014-Nov-26 04:33N 51°19' E 001°51'1010.0
2014-Nov-26 03:33N 51°28' E 001°58'1010.3
2014-Nov-26 02:34N 51°36' E 002°08'1410.9
2014-Nov-26 01:19N 51°46' E 002°24'1512.5
2014-Nov-26 00:06N 51°57' E 002°40'913.2
2014-Nov-25 23:24N 52°04' E 002°50'1313.5
2014-Nov-25 22:24N 52°14' E 003°04'1213.3
2014-Nov-25 21:28N 52°24' E 003°16'1512.6
2014-Nov-25 20:18N 52°36' E 003°30'3311.3
2014-Nov-25 17:22N 53°01' E 004°06'911.2
2014-Nov-25 16:32N 53°08' E 004°17'1211.8
2014-Nov-25 15:33N 53°17' E 004°28'1212.5
2014-Nov-25 14:33N 53°29' E 004°35'3013.0
2014-Nov-25 12:15N 53°58' E 004°48'912.9
2014-Nov-25 11:33N 54°07' E 004°50'1312.4
2014-Nov-25 10:30N 54°19' E 004°57'  
Track history (hours):
 
Tides and Currents Weather Stations Pressure Air Temp Water Temp Dewpoint Dewpoint Depression Visibility Wind Speed Wind Dir Waves Ship Positions

Moleson

Last reported at 2014-Dec-05 01:27 UTC. Time now 2014-Dec-19 08:39 UTC.
Position N 36°27' E 014°31'.
Warning: this ship's position is 14 days out of date.

Length 181 m; draft 9.6 m.

Type: Ship. MMSI: 269039000.

Date/timePositionNaut miles runAvg speedWind from/ knotsBaromVisibWave heightAir tempDewpointWater temp
2014-Dec-05 01:27N 36°27' E 014°31'1112.5
2014-Dec-05 00:33N 36°31' E 014°18'1312.6
2014-Dec-04 23:33N 36°34' E 014°03'1312.9
2014-Dec-04 22:33N 36°38' E 013°47'  
2014-Dec-01 18:33N 36°01' W 005°08'1212.3
2014-Dec-01 17:33N 36°06' W 005°22'1 1.0
2014-Dec-01 16:31N 36°07' W 005°21'0 0.0
2014-Dec-01 15:31N 36°07' W 005°21'0 0.1
2014-Dec-01 14:31N 36°07' W 005°21'0 0.0
2014-Dec-01 13:25N 36°07' W 005°21'0 0.0
2014-Dec-01 12:25N 36°07' W 005°21'0 0.1
2014-Dec-01 11:31N 36°07' W 005°21'0 0.1
2014-Dec-01 10:31N 36°07' W 005°21'0 0.1
2014-Dec-01 09:19N 36°07' W 005°21'0 0.0
2014-Dec-01 08:31N 36°07' W 005°21'0 0.0
2014-Dec-01 07:07N 36°07' W 005°21'0 0.0
2014-Dec-01 06:31N 36°07' W 005°21'0 0.1
2014-Dec-01 05:33N 36°07' W 005°21'0 0.1
2014-Dec-01 04:33N 36°07' W 005°21'1 1.0
2014-Dec-01 03:33N 36°06' W 005°22'8 8.2
2014-Dec-01 02:33N 35°58' W 005°25'26310.1
2014-Nov-30 00:33N 38°22' W 010°01'1211.6
2014-Nov-29 23:33N 38°33' W 010°05'1111.3
2014-Nov-29 22:33N 38°44' W 010°06'1211.3
2014-Nov-29 21:31N 38°56' W 010°06'1311.5
2014-Nov-29 20:25N 39°09' W 010°06'  
2014-Nov-26 21:25N 50°01' W 002°60'11612.9
2014-Nov-26 12:23N 50°32' W 000°04'910.3
2014-Nov-26 11:33N 50°33' E 000°09'10 9.8
2014-Nov-26 10:33N 50°35' E 000°24'1110.6
2014-Nov-26 09:33N 50°39' E 000°39'1312.5
2014-Nov-26 08:33N 50°46' E 000°56'1313.5
2014-Nov-26 07:34N 50°55' E 001°12'1313.0
2014-Nov-26 06:33N 51°04' E 001°27'1111.5
2014-Nov-26 05:33N 51°11' E 001°42'1010.2
2014-Nov-26 04:33N 51°19' E 001°51'1010.0
2014-Nov-26 03:33N 51°28' E 001°58'1010.3
2014-Nov-26 02:34N 51°36' E 002°08'1410.9
2014-Nov-26 01:19N 51°46' E 002°24'1512.5
2014-Nov-26 00:06N 51°57' E 002°40'913.2
2014-Nov-25 23:24N 52°04' E 002°50'1313.5
2014-Nov-25 22:24N 52°14' E 003°04'1213.3
2014-Nov-25 21:28N 52°24' E 003°16'1512.6
2014-Nov-25 20:18N 52°36' E 003°30'3311.3
2014-Nov-25 17:22N 53°01' E 004°06'911.2
2014-Nov-25 16:32N 53°08' E 004°17'1211.8
2014-Nov-25 15:33N 53°17' E 004°28'1212.5
2014-Nov-25 14:33N 53°29' E 004°35'3013.0
2014-Nov-25 12:15N 53°58' E 004°48'912.9
2014-Nov-25 11:33N 54°07' E 004°50'1312.4
2014-Nov-25 10:30N 54°19' E 004°57'  

Dump ship's entire track history